sensor_id;sensor_type;location;lat;lon;timestamp;pressure;altitude;pressure_sealevel;temperature;humidity
5952;BME280;3001;42.622;23.194;2022-09-09T00:00:50;91624.69;;;17.54;100.00
5952;BME280;3001;42.622;23.194;2022-09-09T00:03:25;91626.75;;;17.61;100.00
5952;BME280;3001;42.622;23.194;2022-09-09T00:05:59;91611.38;;;17.48;100.00
5952;BME280;3001;42.622;23.194;2022-09-09T00:08:38;91617.25;;;17.56;100.00
5952;BME280;3001;42.622;23.194;2022-09-09T00:11:12;91615.81;;;17.59;100.00
5952;BME280;3001;42.622;23.194;2022-09-09T00:13:45;91618.34;;;17.55;100.00
5952;BME280;3001;42.622;23.194;2022-09-09T00:16:18;91614.06;;;17.51;100.00
5952;BME280;3001;42.622;23.194;2022-09-09T00:18:56;91610.28;;;17.48;100.00
5952;BME280;3001;42.622;23.194;2022-09-09T00:21:30;91604.06;;;17.41;100.00
5952;BME280;3001;42.622;23.194;2022-09-09T00:24:00;91594.16;;;17.50;100.00
5952;BME280;3001;42.622;23.194;2022-09-09T00:26:32;91583.69;;;17.65;100.00
5952;BME280;3001;42.622;23.194;2022-09-09T00:29:09;91574.72;;;17.66;100.00
5952;BME280;3001;42.622;23.194;2022-09-09T00:31:36;91568.09;;;17.57;100.00
5952;BME280;3001;42.622;23.194;2022-09-09T00:34:12;91573.56;;;17.52;100.00
5952;BME280;3001;42.622;23.194;2022-09-09T00:36:40;91576.06;;;17.60;100.00
5952;BME280;3001;42.622;23.194;2022-09-09T00:39:11;91564.94;;;17.51;100.00
5952;BME280;3001;42.622;23.194;2022-09-09T00:41:50;91572.81;;;17.51;100.00
5952;BME280;3001;42.622;23.194;2022-09-09T00:44:27;91572.16;;;17.54;100.00
5952;BME280;3001;42.622;23.194;2022-09-09T00:47:03;91572.34;;;17.61;100.00
5952;BME280;3001;42.622;23.194;2022-09-09T00:49:41;91576.31;;;17.55;100.00
5952;BME280;3001;42.622;23.194;2022-09-09T00:52:23;91579.91;;;17.63;100.00
5952;BME280;3001;42.622;23.194;2022-09-09T00:54:56;91579.78;;;17.59;100.00
5952;BME280;3001;42.622;23.194;2022-09-09T00:57:28;91580.56;;;17.60;100.00
5952;BME280;3001;42.622;23.194;2022-09-09T01:00:02;91577.13;;;17.44;100.00
5952;BME280;3001;42.622;23.194;2022-09-09T01:02:39;91574.25;;;17.49;100.00
5952;BME280;3001;42.622;23.194;2022-09-09T01:05:13;91573.16;;;17.50;100.00
5952;BME280;3001;42.622;23.194;2022-09-09T01:07:47;91577.88;;;17.44;100.00
5952;BME280;3001;42.622;23.194;2022-09-09T01:10:21;91582.47;;;17.48;100.00
5952;BME280;3001;42.622;23.194;2022-09-09T01:12:51;91565.75;;;17.40;100.00
5952;BME280;3001;42.622;23.194;2022-09-09T01:15:21;91586.97;;;17.47;100.00
5952;BME280;3001;42.622;23.194;2022-09-09T01:17:53;91587.66;;;17.59;100.00
5952;BME280;3001;42.622;23.194;2022-09-09T01:20:26;91581.47;;;17.52;100.00
5952;BME280;3001;42.622;23.194;2022-09-09T01:23:11;91586.38;;;17.53;100.00
5952;BME280;3001;42.622;23.194;2022-09-09T01:28:48;91578.97;;;17.71;100.00
5952;BME280;3001;42.622;23.194;2022-09-09T01:31:19;91571.38;;;17.54;100.00
5952;BME280;3001;42.622;23.194;2022-09-09T01:33:48;91577.50;;;17.58;100.00
5952;BME280;3001;42.622;23.194;2022-09-09T01:36:20;91581.88;;;17.54;100.00
5952;BME280;3001;42.622;23.194;2022-09-09T01:38:50;91587.38;;;17.49;100.00
5952;BME280;3001;42.622;23.194;2022-09-09T01:41:16;91562.81;;;17.30;100.00
5952;BME280;3001;42.622;23.194;2022-09-09T01:43:43;91591.69;;;17.42;100.00
5952;BME280;3001;42.622;23.194;2022-09-09T01:46:12;91585.09;;;17.48;100.00
5952;BME280;3001;42.622;23.194;2022-09-09T01:48:40;91588.38;;;17.44;100.00
5952;BME280;3001;42.622;23.194;2022-09-09T01:51:08;91581.09;;;17.38;100.00
5952;BME280;3001;42.622;23.194;2022-09-09T01:53:36;91589.97;;;17.34;100.00
5952;BME280;3001;42.622;23.194;2022-09-09T01:56:10;91582.84;;;17.34;100.00
5952;BME280;3001;42.622;23.194;2022-09-09T01:58:48;91582.19;;;17.37;100.00
5952;BME280;3001;42.622;23.194;2022-09-09T02:01:26;91567.34;;;17.17;100.00
5952;BME280;3001;42.622;23.194;2022-09-09T02:03:56;91581.56;;;17.16;100.00
5952;BME280;3001;42.622;23.194;2022-09-09T02:06:28;91575.84;;;17.26;100.00
5952;BME280;3001;42.622;23.194;2022-09-09T02:08:57;91580.00;;;17.27;100.00
5952;BME280;3001;42.622;23.194;2022-09-09T02:11:27;91577.03;;;17.29;100.00
5952;BME280;3001;42.622;23.194;2022-09-09T02:13:57;91579.25;;;17.27;100.00
5952;BME280;3001;42.622;23.194;2022-09-09T02:16:32;91571.56;;;17.34;100.00
5952;BME280;3001;42.622;23.194;2022-09-09T02:19:04;91582.03;;;17.45;100.00
5952;BME280;3001;42.622;23.194;2022-09-09T02:21:33;91576.78;;;17.45;100.00
5952;BME280;3001;42.622;23.194;2022-09-09T02:24:04;91578.75;;;17.48;100.00
5952;BME280;3001;42.622;23.194;2022-09-09T02:26:36;91575.69;;;17.47;100.00
5952;BME280;3001;42.622;23.194;2022-09-09T02:29:08;91579.94;;;17.51;100.00
5952;BME280;3001;42.622;23.194;2022-09-09T02:31:39;91582.47;;;17.48;100.00
5952;BME280;3001;42.622;23.194;2022-09-09T02:34:09;91584.56;;;17.42;100.00
5952;BME280;3001;42.622;23.194;2022-09-09T02:36:38;91591.25;;;17.40;100.00
5952;BME280;3001;42.622;23.194;2022-09-09T02:39:07;91594.31;;;17.42;100.00
5952;BME280;3001;42.622;23.194;2022-09-09T02:41:37;91595.22;;;17.34;100.00
5952;BME280;3001;42.622;23.194;2022-09-09T02:44:08;91591.28;;;17.16;100.00
5952;BME280;3001;42.622;23.194;2022-09-09T02:47:11;91587.81;;;17.12;100.00
5952;BME280;3001;42.622;23.194;2022-09-09T02:49:55;91594.72;;;17.04;100.00
5952;BME280;3001;42.622;23.194;2022-09-09T02:52:38;91601.47;;;17.17;100.00
5952;BME280;3001;42.622;23.194;2022-09-09T02:55:12;91600.38;;;17.06;100.00
5952;BME280;3001;42.622;23.194;2022-09-09T02:57:44;91598.88;;;17.05;100.00
5952;BME280;3001;42.622;23.194;2022-09-09T03:00:14;91582.25;;;17.01;100.00
5952;BME280;3001;42.622;23.194;2022-09-09T03:02:42;91600.81;;;17.20;100.00
5952;BME280;3001;42.622;23.194;2022-09-09T03:05:10;91594.03;;;17.07;100.00
5952;BME280;3001;42.622;23.194;2022-09-09T03:07:38;91597.88;;;17.10;100.00
5952;BME280;3001;42.622;23.194;2022-09-09T03:10:06;91597.66;;;17.03;100.00
5952;BME280;3001;42.622;23.194;2022-09-09T03:12:33;91592.22;;;16.96;100.00
5952;BME280;3001;42.622;23.194;2022-09-09T03:15:00;91599.41;;;16.99;100.00
5952;BME280;3001;42.622;23.194;2022-09-09T03:17:26;91596.47;;;17.00;100.00
5952;BME280;3001;42.622;23.194;2022-09-09T03:19:54;91604.13;;;17.05;100.00
5952;BME280;3001;42.622;23.194;2022-09-09T03:22:23;91597.34;;;17.04;100.00
5952;BME280;3001;42.622;23.194;2022-09-09T03:24:50;91599.53;;;17.02;100.00
5952;BME280;3001;42.622;23.194;2022-09-09T03:27:17;91594.28;;;16.90;100.00
5952;BME280;3001;42.622;23.194;2022-09-09T03:29:45;91591.66;;;16.90;100.00
5952;BME280;3001;42.622;23.194;2022-09-09T03:32:12;91591.66;;;16.90;100.00
5952;BME280;3001;42.622;23.194;2022-09-09T03:34:39;91590.06;;;16.86;100.00
5952;BME280;3001;42.622;23.194;2022-09-09T03:37:07;91589.69;;;16.87;100.00
5952;BME280;3001;42.622;23.194;2022-09-09T03:39:33;91585.34;;;16.79;100.00
5952;BME280;3001;42.622;23.194;2022-09-09T03:42:00;91581.75;;;16.72;100.00
5952;BME280;3001;42.622;23.194;2022-09-09T03:44:29;91593.00;;;16.72;100.00
5952;BME280;3001;42.622;23.194;2022-09-09T03:46:56;91599.56;;;16.66;100.00
5952;BME280;3001;42.622;23.194;2022-09-09T03:49:25;91597.13;;;16.73;100.00
5952;BME280;3001;42.622;23.194;2022-09-09T03:51:54;91600.44;;;16.70;100.00
5952;BME280;3001;42.622;23.194;2022-09-09T03:54:23;91593.44;;;16.74;100.00
5952;BME280;3001;42.622;23.194;2022-09-09T03:56:50;91584.25;;;16.68;100.00
5952;BME280;3001;42.622;23.194;2022-09-09T03:59:17;91582.41;;;16.69;100.00
5952;BME280;3001;42.622;23.194;2022-09-09T04:01:43;91590.16;;;16.77;100.00
5952;BME280;3001;42.622;23.194;2022-09-09T04:04:10;91589.59;;;16.84;100.00
5952;BME280;3001;42.622;23.194;2022-09-09T04:06:37;91589.50;;;16.80;100.00
5952;BME280;3001;42.622;23.194;2022-09-09T04:09:04;91592.13;;;16.80;100.00
5952;BME280;3001;42.622;23.194;2022-09-09T04:11:32;91597.03;;;16.82;100.00
5952;BME280;3001;42.622;23.194;2022-09-09T04:13:59;91594.09;;;16.83;100.00
5952;BME280;3001;42.622;23.194;2022-09-09T04:16:26;91588.06;;;16.83;100.00
5952;BME280;3001;42.622;23.194;2022-09-09T04:18:52;91585.78;;;16.81;100.00
5952;BME280;3001;42.622;23.194;2022-09-09T04:21:19;91584.81;;;16.86;100.00
5952;BME280;3001;42.622;23.194;2022-09-09T04:23:46;91578.78;;;16.85;100.00
5952;BME280;3001;42.622;23.194;2022-09-09T04:26:13;91580.84;;;16.80;100.00
5952;BME280;3001;42.622;23.194;2022-09-09T04:28:41;91586.44;;;16.78;100.00
5952;BME280;3001;42.622;23.194;2022-09-09T04:31:10;91587.19;;;16.79;100.00
5952;BME280;3001;42.622;23.194;2022-09-09T04:33:37;91589.06;;;16.78;100.00
5952;BME280;3001;42.622;23.194;2022-09-09T04:36:05;91593.22;;;16.79;100.00
5952;BME280;3001;42.622;23.194;2022-09-09T04:38:32;91587.19;;;16.79;100.00
5952;BME280;3001;42.622;23.194;2022-09-09T04:40:58;91594.31;;;16.78;100.00
5952;BME280;3001;42.622;23.194;2022-09-09T04:43:25;91595.84;;;16.79;100.00
5952;BME280;3001;42.622;23.194;2022-09-09T04:45:54;91593.31;;;16.83;100.00
5952;BME280;3001;42.622;23.194;2022-09-09T04:48:21;91592.22;;;16.84;100.00
5952;BME280;3001;42.622;23.194;2022-09-09T04:50:55;91591.66;;;16.90;100.00
5952;BME280;3001;42.622;23.194;2022-09-09T04:53:22;91593.53;;;16.90;100.00
5952;BME280;3001;42.622;23.194;2022-09-09T04:55:50;91586.28;;;16.99;100.00
5952;BME280;3001;42.622;23.194;2022-09-09T04:58:17;91585.50;;;17.10;100.00
5952;BME280;3001;42.622;23.194;2022-09-09T05:00:44;91579.03;;;17.20;100.00
5952;BME280;3001;42.622;23.194;2022-09-09T05:03:13;91580.00;;;17.15;100.00
5952;BME280;3001;42.622;23.194;2022-09-09T05:05:39;91568.94;;;17.22;100.00
5952;BME280;3001;42.622;23.194;2022-09-09T05:08:07;91568.59;;;17.35;100.00
5952;BME280;3001;42.622;23.194;2022-09-09T05:10:37;91553.06;;;17.42;100.00
5952;BME280;3001;42.622;23.194;2022-09-09T05:13:04;91569.25;;;17.44;100.00
5952;BME280;3001;42.622;23.194;2022-09-09T05:15:31;91567.38;;;17.44;100.00
5952;BME280;3001;42.622;23.194;2022-09-09T05:17:59;91565.63;;;17.48;100.00
5952;BME280;3001;42.622;23.194;2022-09-09T05:20:27;91548.63;;;17.58;100.00
5952;BME280;3001;42.622;23.194;2022-09-09T05:22:54;91550.16;;;17.59;100.00
5952;BME280;3001;42.622;23.194;2022-09-09T05:25:21;91557.25;;;17.58;100.00
5952;BME280;3001;42.622;23.194;2022-09-09T05:27:49;91555.41;;;17.59;100.00
5952;BME280;3001;42.622;23.194;2022-09-09T05:30:16;91561.97;;;17.53;100.00
5952;BME280;3001;42.622;23.194;2022-09-09T05:32:44;91556.81;;;17.56;100.00
5952;BME280;3001;42.622;23.194;2022-09-09T05:35:12;91563.88;;;17.68;100.00
5952;BME280;3001;42.622;23.194;2022-09-09T05:37:40;91560.78;;;17.78;100.00
5952;BME280;3001;42.622;23.194;2022-09-09T05:40:07;91567.13;;;17.77;100.00
5952;BME280;3001;42.622;23.194;2022-09-09T05:42:34;91573.50;;;17.91;100.00
5952;BME280;3001;42.622;23.194;2022-09-09T05:45:01;91572.00;;;17.90;100.00
5952;BME280;3001;42.622;23.194;2022-09-09T05:47:28;91580.03;;;17.97;100.00
5952;BME280;3001;42.622;23.194;2022-09-09T05:49:54;91586.06;;;17.98;100.00
5952;BME280;3001;42.622;23.194;2022-09-09T05:52:21;91575.31;;;18.03;100.00
5952;BME280;3001;42.622;23.194;2022-09-09T05:54:50;91580.03;;;17.97;100.00
5952;BME280;3001;42.622;23.194;2022-09-09T05:57:17;91577.94;;;18.03;100.00
5952;BME280;3001;42.622;23.194;2022-09-09T05:59:44;91579.88;;;18.21;100.00
5952;BME280;3001;42.622;23.194;2022-09-09T06:02:12;91588.19;;;18.23;100.00
5952;BME280;3001;42.622;23.194;2022-09-09T06:04:39;91589.25;;;18.34;100.00
5952;BME280;3001;42.622;23.194;2022-09-09T06:07:07;91595.78;;;18.40;100.00
5952;BME280;3001;42.622;23.194;2022-09-09T06:09:34;91597.41;;;18.45;100.00
5952;BME280;3001;42.622;23.194;2022-09-09T06:12:02;91603.34;;;18.57;100.00
5952;BME280;3001;42.622;23.194;2022-09-09T06:14:29;91605.13;;;18.69;100.00
5952;BME280;3001;42.622;23.194;2022-09-09T06:16:55;91601.22;;;18.78;100.00
5952;BME280;3001;42.622;23.194;2022-09-09T06:19:22;91591.50;;;18.82;100.00
5952;BME280;3001;42.622;23.194;2022-09-09T06:21:52;91599.31;;;18.94;100.00
5952;BME280;3001;42.622;23.194;2022-09-09T06:24:19;91596.84;;;19.01;100.00
5952;BME280;3001;42.622;23.194;2022-09-09T06:26:45;91604.44;;;19.06;100.00
5952;BME280;3001;42.622;23.194;2022-09-09T06:29:13;91598.09;;;19.07;100.00
5952;BME280;3001;42.622;23.194;2022-09-09T06:31:40;91596.31;;;19.11;100.00
5952;BME280;3001;42.622;23.194;2022-09-09T06:34:08;91581.00;;;19.17;100.00
5952;BME280;3001;42.622;23.194;2022-09-09T06:36:36;91577.19;;;19.14;100.00
5952;BME280;3001;42.622;23.194;2022-09-09T06:39:04;91580.19;;;19.31;100.00
5952;BME280;3001;42.622;23.194;2022-09-09T06:41:32;91578.56;;;19.42;100.00
5952;BME280;3001;42.622;23.194;2022-09-09T06:43:59;91578.75;;;19.34;100.00
5952;BME280;3001;42.622;23.194;2022-09-09T06:46:28;91586.53;;;19.46;100.00
5952;BME280;3001;42.622;23.194;2022-09-09T06:48:57;91595.94;;;19.66;100.00
5952;BME280;3001;42.622;23.194;2022-09-09T06:51:25;91597.47;;;19.67;100.00
5952;BME280;3001;42.622;23.194;2022-09-09T06:53:54;91597.75;;;19.81;100.00
5952;BME280;3001;42.622;23.194;2022-09-09T06:56:22;91608.84;;;19.90;100.00
5952;BME280;3001;42.622;23.194;2022-09-09T06:58:50;91614.56;;;19.92;100.00
5952;BME280;3001;42.622;23.194;2022-09-09T07:01:18;91615.19;;;20.04;100.00
5952;BME280;3001;42.622;23.194;2022-09-09T07:03:48;91620.97;;;20.32;100.00
5952;BME280;3001;42.622;23.194;2022-09-09T07:06:17;91622.66;;;20.44;100.00
5952;BME280;3001;42.622;23.194;2022-09-09T07:08:48;91614.22;;;20.57;100.00
5952;BME280;3001;42.622;23.194;2022-09-09T07:11:16;91611.44;;;20.73;100.00
5952;BME280;3001;42.622;23.194;2022-09-09T07:13:43;91615.97;;;20.72;100.00
5952;BME280;3001;42.622;23.194;2022-09-09T07:16:11;91618.00;;;20.82;100.00
5952;BME280;3001;42.622;23.194;2022-09-09T07:18:39;91620.81;;;20.89;100.00
5952;BME280;3001;42.622;23.194;2022-09-09T07:21:10;91608.81;;;20.95;99.22
5952;BME280;3001;42.622;23.194;2022-09-09T07:23:37;91606.44;;;21.12;95.44
5952;BME280;3001;42.622;23.194;2022-09-09T07:26:08;91608.78;;;21.17;99.17
5952;BME280;3001;42.622;23.194;2022-09-09T07:28:35;91590.03;;;21.26;97.96
5952;BME280;3001;42.622;23.194;2022-09-09T07:31:02;91603.28;;;21.59;100.00
5952;BME280;3001;42.622;23.194;2022-09-09T07:33:30;91598.41;;;21.61;95.38
5952;BME280;3001;42.622;23.194;2022-09-09T07:36:03;91602.31;;;21.70;94.37
5952;BME280;3001;42.622;23.194;2022-09-09T07:38:32;91605.53;;;21.86;93.96
5952;BME280;3001;42.622;23.194;2022-09-09T07:41:04;91612.41;;;21.91;91.58
5952;BME280;3001;42.622;23.194;2022-09-09T07:43:32;91623.13;;;22.05;91.35
5952;BME280;3001;42.622;23.194;2022-09-09T07:46:00;91613.44;;;22.16;91.45
5952;BME280;3001;42.622;23.194;2022-09-09T07:48:28;91627.22;;;22.32;89.91
5952;BME280;3001;42.622;23.194;2022-09-09T07:51:04;91620.56;;;22.45;89.89
5952;BME280;3001;42.622;23.194;2022-09-09T07:53:33;91623.78;;;22.64;88.22
5952;BME280;3001;42.622;23.194;2022-09-09T07:56:04;91634.13;;;22.80;87.87
5952;BME280;3001;42.622;23.194;2022-09-09T07:58:31;91623.19;;;22.85;86.23
5952;BME280;3001;42.622;23.194;2022-09-09T08:00:58;91629.38;;;23.02;85.63
5952;BME280;3001;42.622;23.194;2022-09-09T08:03:25;91623.44;;;23.12;85.03
5952;BME280;3001;42.622;23.194;2022-09-09T08:05:52;91632.22;;;23.23;84.31
5952;BME280;3001;42.622;23.194;2022-09-09T08:08:18;91634.19;;;23.33;84.00
5952;BME280;3001;42.622;23.194;2022-09-09T08:10:46;91627.84;;;23.45;84.76
5952;BME280;3001;42.622;23.194;2022-09-09T08:13:13;91630.91;;;23.50;83.08
5952;BME280;3001;42.622;23.194;2022-09-09T08:15:40;91632.91;;;23.71;81.87
5952;BME280;3001;42.622;23.194;2022-09-09T08:18:08;91628.38;;;23.75;81.22
5952;BME280;3001;42.622;23.194;2022-09-09T08:20:36;91627.22;;;23.76;78.73
5952;BME280;3001;42.622;23.194;2022-09-09T08:23:03;91633.38;;;23.83;79.27
5952;BME280;3001;42.622;23.194;2022-09-09T08:25:31;91630.75;;;23.94;79.66
5952;BME280;3001;42.622;23.194;2022-09-09T08:28:01;91630.00;;;23.93;78.80
5952;BME280;3001;42.622;23.194;2022-09-09T08:30:28;91627.78;;;24.06;78.46
5952;BME280;3001;42.622;23.194;2022-09-09T08:32:55;91635.03;;;24.12;78.63
5952;BME280;3001;42.622;23.194;2022-09-09T08:35:22;91644.50;;;24.13;78.93
5952;BME280;3001;42.622;23.194;2022-09-09T08:37:53;91644.88;;;24.15;77.96
5952;BME280;3001;42.622;23.194;2022-09-09T08:40:24;91639.56;;;24.15;79.10
5952;BME280;3001;42.622;23.194;2022-09-09T08:42:55;91629.72;;;24.19;79.58
5952;BME280;3001;42.622;23.194;2022-09-09T08:45:34;91633.16;;;24.23;79.17
5952;BME280;3001;42.622;23.194;2022-09-09T08:48:10;91635.44;;;24.28;80.65
5952;BME280;3001;42.622;23.194;2022-09-09T08:50:39;91621.03;;;24.33;80.37
5952;BME280;3001;42.622;23.194;2022-09-09T08:53:11;91621.44;;;24.38;80.38
5952;BME280;3001;42.622;23.194;2022-09-09T08:55:44;91616.88;;;24.35;79.94
5952;BME280;3001;42.622;23.194;2022-09-09T08:58:15;91620.31;;;24.46;79.56
5952;BME280;3001;42.622;23.194;2022-09-09T09:01:00;91615.44;;;24.55;80.37
5952;BME280;3001;42.622;23.194;2022-09-09T09:03:37;91624.56;;;24.68;79.92
5952;BME280;3001;42.622;23.194;2022-09-09T09:06:24;91633.69;;;24.81;79.27
5952;BME280;3001;42.622;23.194;2022-09-09T09:08:59;91636.34;;;24.84;77.85
5952;BME280;3001;42.622;23.194;2022-09-09T09:11:34;91626.84;;;24.87;76.79
5952;BME280;3001;42.622;23.194;2022-09-09T09:14:03;91632.56;;;24.96;76.87
5952;BME280;3001;42.622;23.194;2022-09-09T09:16:39;91634.47;;;24.92;77.81
5952;BME280;3001;42.622;23.194;2022-09-09T09:19:13;91635.59;;;24.87;76.87
5952;BME280;3001;42.622;23.194;2022-09-09T09:21:42;91637.50;;;24.90;78.23
5952;BME280;3001;42.622;23.194;2022-09-09T09:24:16;91631.03;;;24.95;77.56
5952;BME280;3001;42.622;23.194;2022-09-09T09:26:44;91637.50;;;25.01;77.71
5952;BME280;3001;42.622;23.194;2022-09-09T09:29:13;91650.78;;;25.08;77.03
5952;BME280;3001;42.622;23.194;2022-09-09T09:31:44;91639.00;;;25.09;77.13
5952;BME280;3001;42.622;23.194;2022-09-09T09:34:13;91642.09;;;25.18;77.22
5952;BME280;3001;42.622;23.194;2022-09-09T09:36:42;91642.47;;;25.34;77.28
5952;BME280;3001;42.622;23.194;2022-09-09T09:39:22;91635.22;;;25.31;76.65
5952;BME280;3001;42.622;23.194;2022-09-09T09:41:50;91627.66;;;25.33;77.51
5952;BME280;3001;42.622;23.194;2022-09-09T09:44:25;91624.97;;;25.26;77.70
5952;BME280;3001;42.622;23.194;2022-09-09T09:47:05;91609.78;;;25.26;79.06
5952;BME280;3001;42.622;23.194;2022-09-09T09:49:32;91631.06;;;25.37;76.64
5952;BME280;3001;42.622;23.194;2022-09-09T09:52:00;91622.31;;;25.36;77.40
5952;BME280;3001;42.622;23.194;2022-09-09T09:54:28;91625.38;;;25.35;76.84
5952;BME280;3001;42.622;23.194;2022-09-09T09:56:56;91622.69;;;25.28;76.86
5952;BME280;3001;42.622;23.194;2022-09-09T09:59:34;91627.66;;;25.29;78.24
5952;BME280;3001;42.622;23.194;2022-09-09T10:02:20;91625.75;;;25.37;77.52
5952;BME280;3001;42.622;23.194;2022-09-09T10:05:00;91633.34;;;25.28;76.88
5952;BME280;3001;42.622;23.194;2022-09-09T10:07:27;91643.22;;;25.24;76.34
5952;BME280;3001;42.622;23.194;2022-09-09T10:09:56;91647.41;;;25.18;76.09
5952;BME280;3001;42.622;23.194;2022-09-09T10:12:33;91652.31;;;25.16;75.60
5952;BME280;3001;42.622;23.194;2022-09-09T10:15:12;91651.53;;;25.05;76.34
5952;BME280;3001;42.622;23.194;2022-09-09T10:17:54;91658.00;;;25.00;77.39
5952;BME280;3001;42.622;23.194;2022-09-09T10:20:33;91643.97;;;25.00;77.71
5952;BME280;3001;42.622;23.194;2022-09-09T10:23:11;91640.16;;;24.97;78.38
5952;BME280;3001;42.622;23.194;2022-09-09T10:25:56;91641.66;;;24.98;77.23
5952;BME280;3001;42.622;23.194;2022-09-09T10:29:02;91646.22;;;24.94;78.58
5952;BME280;3001;42.622;23.194;2022-09-09T10:31:40;91637.13;;;24.88;79.44
5952;BME280;3001;42.622;23.194;2022-09-09T10:34:22;91654.97;;;24.98;77.98
5952;BME280;3001;42.622;23.194;2022-09-09T10:36:56;91658.78;;;24.94;79.18
5952;BME280;3001;42.622;23.194;2022-09-09T10:39:33;91656.47;;;24.89;79.29
5952;BME280;3001;42.622;23.194;2022-09-09T10:42:05;91653.81;;;24.92;79.17
5952;BME280;3001;42.622;23.194;2022-09-09T10:44:46;91652.66;;;24.83;79.77
5952;BME280;3001;42.622;23.194;2022-09-09T10:47:31;91664.44;;;24.82;79.70
5952;BME280;3001;42.622;23.194;2022-09-09T10:50:23;91664.06;;;24.87;79.24
5952;BME280;3001;42.622;23.194;2022-09-09T10:53:00;91655.72;;;24.85;80.14
5952;BME280;3001;42.622;23.194;2022-09-09T10:55:35;91654.97;;;24.91;80.35
5952;BME280;3001;42.622;23.194;2022-09-09T10:58:08;91654.19;;;24.84;79.88
5952;BME280;3001;42.622;23.194;2022-09-09T11:00:40;91656.84;;;24.91;80.09
5952;BME280;3001;42.622;23.194;2022-09-09T11:03:16;91667.50;;;24.87;80.28
5952;BME280;3001;42.622;23.194;2022-09-09T11:05:49;91665.19;;;24.86;80.86
5952;BME280;3001;42.622;23.194;2022-09-09T11:08:19;91663.31;;;24.97;80.29
5952;BME280;3001;42.622;23.194;2022-09-09T11:10:52;91667.13;;;24.96;79.36
5952;BME280;3001;42.622;23.194;2022-09-09T11:13:24;91656.09;;;24.97;80.24
5952;BME280;3001;42.622;23.194;2022-09-09T11:15:58;91651.53;;;24.94;80.29
5952;BME280;3001;42.622;23.194;2022-09-09T11:18:38;91648.88;;;24.91;81.12
5952;BME280;3001;42.622;23.194;2022-09-09T11:21:11;91641.66;;;25.09;78.52
5952;BME280;3001;42.622;23.194;2022-09-09T11:23:45;91638.28;;;25.26;80.95
5952;BME280;3001;42.622;23.194;2022-09-09T11:26:18;91633.72;;;25.23;79.18
5952;BME280;3001;42.622;23.194;2022-09-09T11:29:00;91612.47;;;25.26;81.04
5952;BME280;3001;42.622;23.194;2022-09-09T11:31:44;91610.16;;;25.35;81.22
5952;BME280;3001;42.622;23.194;2022-09-09T11:34:22;91615.47;;;25.32;79.48
5952;BME280;3001;42.622;23.194;2022-09-09T11:37:05;91615.09;;;25.33;80.41
5952;BME280;3001;42.622;23.194;2022-09-09T11:39:52;91593.06;;;25.40;81.53
5952;BME280;3001;42.622;23.194;2022-09-09T11:42:24;91561.91;;;25.30;81.84
5952;BME280;3001;42.622;23.194;2022-09-09T11:44:51;91560.75;;;25.38;81.69
5952;BME280;3001;42.622;23.194;2022-09-09T11:47:23;91559.59;;;25.46;80.73
5952;BME280;3001;42.622;23.194;2022-09-09T11:49:54;91566.44;;;25.47;82.90
5952;BME280;3001;42.622;23.194;2022-09-09T11:52:25;91571.34;;;25.52;82.55
5952;BME280;3001;42.622;23.194;2022-09-09T11:55:09;91585.81;;;25.58;80.79
5952;BME280;3001;42.622;23.194;2022-09-09T11:57:38;91576.28;;;25.50;79.84
5952;BME280;3001;42.622;23.194;2022-09-09T12:00:06;91577.81;;;25.58;78.38
5952;BME280;3001;42.622;23.194;2022-09-09T12:02:34;91568.72;;;25.48;77.68
5952;BME280;3001;42.622;23.194;2022-09-09T12:05:05;91566.03;;;25.59;78.63
5952;BME280;3001;42.622;23.194;2022-09-09T12:07:37;91567.91;;;25.58;78.28
5952;BME280;3001;42.622;23.194;2022-09-09T12:10:20;91564.88;;;25.60;78.23
5952;BME280;3001;42.622;23.194;2022-09-09T12:12:48;91567.91;;;25.62;78.75
5952;BME280;3001;42.622;23.194;2022-09-09T12:15:22;91564.84;;;25.67;77.30
5952;BME280;3001;42.622;23.194;2022-09-09T12:17:54;91567.09;;;25.72;78.58
5952;BME280;3001;42.622;23.194;2022-09-09T12:20:23;91548.13;;;25.66;77.47
5952;BME280;3001;42.622;23.194;2022-09-09T12:23:15;91564.44;;;25.72;76.41
5952;BME280;3001;42.622;23.194;2022-09-09T12:25:55;91555.72;;;25.68;77.46
5952;BME280;3001;42.622;23.194;2022-09-09T12:28:27;91554.97;;;25.64;75.37
5952;BME280;3001;42.622;23.194;2022-09-09T12:31:05;91553.50;;;25.56;75.36
5952;BME280;3001;42.622;23.194;2022-09-09T12:33:35;91560.72;;;25.59;74.76
5952;BME280;3001;42.622;23.194;2022-09-09T12:36:03;91556.16;;;25.56;74.74
5952;BME280;3001;42.622;23.194;2022-09-09T12:38:34;91554.63;;;25.55;75.08
5952;BME280;3001;42.622;23.194;2022-09-09T12:41:02;91552.72;;;25.52;76.16
5952;BME280;3001;42.622;23.194;2022-09-09T12:43:29;91561.13;;;25.43;76.07
5952;BME280;3001;42.622;23.194;2022-09-09T12:45:58;91553.56;;;25.35;76.55
5952;BME280;3001;42.622;23.194;2022-09-09T12:48:33;91547.84;;;25.36;77.37
5952;BME280;3001;42.622;23.194;2022-09-09T12:51:02;91547.84;;;25.26;77.12
5952;BME280;3001;42.622;23.194;2022-09-09T12:53:35;91533.06;;;25.18;77.10
5952;BME280;3001;42.622;23.194;2022-09-09T12:56:07;91528.50;;;25.22;79.30
5952;BME280;3001;42.622;23.194;2022-09-09T12:58:36;91522.78;;;25.13;78.26
5952;BME280;3001;42.622;23.194;2022-09-09T13:01:05;91521.25;;;25.15;79.17
5952;BME280;3001;42.622;23.194;2022-09-09T13:03:33;91523.16;;;25.15;78.47
5952;BME280;3001;42.622;23.194;2022-09-09T13:06:11;91521.63;;;25.17;78.72
5952;BME280;3001;42.622;23.194;2022-09-09T13:08:40;91514.81;;;25.13;81.32
5952;BME280;3001;42.622;23.194;2022-09-09T13:11:12;91510.63;;;25.15;79.42
5952;BME280;3001;42.622;23.194;2022-09-09T13:13:42;91520.09;;;25.16;79.17
5952;BME280;3001;42.622;23.194;2022-09-09T13:16:20;91517.09;;;25.21;79.35
5952;BME280;3001;42.622;23.194;2022-09-09T13:18:48;91509.47;;;25.30;80.50
5952;BME280;3001;42.622;23.194;2022-09-09T13:21:16;91503.41;;;25.16;79.03
5952;BME280;3001;42.622;23.194;2022-09-09T13:23:49;91498.84;;;25.27;80.53
5952;BME280;3001;42.622;23.194;2022-09-09T13:26:24;91499.22;;;25.29;78.34
5952;BME280;3001;42.622;23.194;2022-09-09T13:28:51;91495.03;;;25.31;78.97